createdAt,value
2019-03-22T00:00:48.347Z,18.50
2019-03-22T00:05:54.144Z,17.95
2019-03-22T00:11:00.877Z,17.52
2019-03-22T00:16:08.741Z,19.87
2019-03-22T00:21:14.606Z,18.13
2019-03-22T00:26:20.436Z,18.07
2019-03-22T00:31:26.108Z,16.57
2019-03-22T00:36:31.866Z,16.93
2019-03-22T00:41:37.924Z,18.15
2019-03-22T00:46:43.599Z,17.87
2019-03-22T00:51:50.326Z,17.13
2019-03-22T00:56:56.287Z,17.17
2019-03-22T01:02:02.779Z,16.13
2019-03-22T01:07:08.810Z,16.17
2019-03-22T01:12:14.480Z,15.58
2019-03-22T01:17:20.530Z,17.10
2019-03-22T01:22:26.212Z,16.65
2019-03-22T01:27:40.445Z,16.15
2019-03-22T01:32:39.711Z,15.70
2019-03-22T01:37:45.389Z,15.87
2019-03-22T01:42:51.196Z,15.90
2019-03-22T01:47:57.316Z,15.23
2019-03-22T01:53:03.172Z,15.20
2019-03-22T01:58:09.247Z,15.63
2019-03-22T02:03:15.077Z,15.48
2019-03-22T02:08:21.862Z,15.37
2019-03-22T02:13:27.921Z,15.53
2019-03-22T02:18:33.593Z,15.68
2019-03-22T02:23:40.046Z,15.47
2019-03-22T02:28:45.731Z,15.90
2019-03-22T02:33:51.495Z,15.20
2019-03-22T02:38:58.404Z,16.35
2019-03-22T02:44:04.626Z,15.53
2019-03-22T02:49:11.355Z,15.77
2019-03-22T02:54:17.077Z,16.03
2019-03-22T02:59:22.687Z,14.93
2019-03-22T03:04:29.820Z,15.23
2019-03-22T03:09:35.800Z,15.60
2019-03-22T03:14:41.483Z,14.47
2019-03-22T03:19:47.078Z,15.20
2019-03-22T03:24:52.823Z,15.13
2019-03-22T03:29:58.849Z,15.03
2019-03-22T03:35:05.109Z,15.20
2019-03-22T03:40:13.344Z,14.23
2019-03-22T03:45:34.370Z,15.50
2019-03-22T03:50:40.540Z,15.47
2019-03-22T03:55:46.334Z,15.27
2019-03-22T04:00:52.401Z,14.65
2019-03-22T04:05:58.445Z,15.60
2019-03-22T04:11:05.094Z,15.03
2019-03-22T04:16:12.518Z,14.40
2019-03-22T04:21:18.225Z,16.27
2019-03-22T04:26:24.050Z,15.55
2019-03-22T04:31:30.181Z,15.17
2019-03-22T04:36:36.066Z,16.17
2019-03-22T04:41:41.810Z,17.57
2019-03-22T04:46:48.544Z,18.30
2019-03-22T04:51:56.043Z,17.40
2019-03-22T04:57:04.023Z,16.20
2019-03-22T05:02:11.141Z,16.50
2019-03-22T05:07:19.433Z,18.17
2019-03-22T05:12:26.142Z,17.60
2019-03-22T05:17:33.212Z,17.07
2019-03-22T05:22:40.274Z,16.60
2019-03-22T05:27:47.835Z,18.20
2019-03-22T05:32:53.617Z,18.43
2019-03-22T05:37:59.419Z,16.60
2019-03-22T05:43:05.159Z,21.67
2019-03-22T05:48:10.951Z,20.10
2019-03-22T05:53:16.994Z,20.17
2019-03-22T05:58:22.908Z,20.83
2019-03-22T06:03:29.066Z,20.27
2019-03-22T06:08:35.322Z,17.67
2019-03-22T06:13:41.106Z,18.47
2019-03-22T06:18:47.293Z,18.73
2019-03-22T06:23:53.483Z,18.33
2019-03-22T06:28:59.317Z,17.43
2019-03-22T06:34:06.121Z,18.80
2019-03-22T06:39:12.282Z,17.02
2019-03-22T06:44:18.688Z,17.00
2019-03-22T06:49:24.483Z,16.87
2019-03-22T06:54:31.894Z,18.20
2019-03-22T06:59:38.447Z,16.42
2019-03-22T07:04:44.344Z,15.28
2019-03-22T07:09:50.503Z,16.37
2019-03-22T07:14:56.406Z,15.40
2019-03-22T07:20:02.154Z,16.93
2019-03-22T07:25:08.507Z,16.90
2019-03-22T07:30:18.939Z,15.98
2019-03-22T07:35:23.732Z,16.02
2019-03-22T07:40:29.635Z,16.90
2019-03-22T07:45:35.865Z,16.05
2019-03-22T07:50:42.864Z,16.67
2019-03-22T07:55:48.805Z,16.77
2019-03-22T08:00:55.171Z,16.65
2019-03-22T08:06:01.139Z,16.93
2019-03-22T08:11:07.396Z,16.57
2019-03-22T08:16:13.307Z,15.93
2019-03-22T08:21:19.161Z,16.93
2019-03-22T08:26:24.996Z,18.57
2019-03-22T08:31:31.164Z,18.67
2019-03-22T08:36:36.976Z,18.52
2019-03-22T08:41:44.346Z,19.60
2019-03-22T08:46:50.341Z,18.95
2019-03-22T08:51:57.666Z,19.40
2019-03-22T08:57:03.543Z,18.77
2019-03-22T09:02:09.386Z,20.08
2019-03-22T09:07:15.203Z,19.05
2019-03-22T09:12:21.022Z,20.15
2019-03-22T09:17:26.937Z,20.10
2019-03-22T09:22:33.283Z,19.60
2019-03-22T09:27:39.286Z,20.72
2019-03-22T09:32:46.248Z,21.57
2019-03-22T09:37:52.204Z,20.43
2019-03-22T09:42:58.123Z,21.95
2019-03-22T09:48:06.119Z,20.82
2019-03-22T09:53:11.940Z,18.48
2019-03-22T09:58:17.718Z,18.37
2019-03-22T10:03:24.002Z,17.45
2019-03-22T10:08:29.776Z,17.92
2019-03-22T10:13:35.799Z,17.30
2019-03-22T10:18:42.720Z,15.13
2019-03-22T10:23:48.538Z,16.55
2019-03-22T10:28:55.460Z,15.88
2019-03-22T10:34:01.402Z,15.85
2019-03-22T10:39:09.613Z,15.38
2019-03-22T10:44:15.838Z,14.25
2019-03-22T10:49:21.992Z,15.65
2019-03-22T10:54:27.917Z,14.70
2019-03-22T10:59:33.775Z,19.10
2019-03-22T11:04:41.200Z,16.55
2019-03-22T11:09:47.497Z,17.45
2019-03-22T11:14:53.773Z,17.17
2019-03-22T11:19:59.630Z,19.50
2019-03-22T11:25:07.633Z,18.30
2019-03-22T11:30:15.968Z,17.30
2019-03-22T11:35:22.070Z,18.50
2019-03-22T11:40:27.982Z,19.90
2019-03-22T11:45:34.207Z,17.57
2019-03-22T11:50:40.536Z,18.62
2019-03-22T11:55:46.383Z,20.77
2019-03-22T12:00:52.200Z,20.65
2019-03-22T12:05:58.039Z,17.55
2019-03-22T12:11:03.842Z,16.73
2019-03-22T12:16:09.809Z,15.50
2019-03-22T12:21:15.613Z,17.73
2019-03-22T12:26:21.419Z,18.62
2019-03-22T12:31:29.016Z,16.75
2019-03-22T12:36:36.978Z,16.57
2019-03-22T12:41:42.785Z,15.78
2019-03-22T12:46:49.314Z,21.75
2019-03-22T12:51:55.215Z,20.75
2019-03-22T12:57:01.579Z,16.23
2019-03-22T13:02:08.415Z,15.90
2019-03-22T13:07:15.341Z,16.02
2019-03-22T13:12:21.340Z,16.40
2019-03-22T13:17:27.175Z,12.82
2019-03-22T13:22:34.087Z,11.35
2019-03-22T13:27:39.906Z,12.58
2019-03-22T13:32:52.179Z,11.85
2019-03-22T13:37:53.768Z,12.63
2019-03-22T13:43:00.488Z,10.48
2019-03-22T13:48:07.794Z,13.08
2019-03-22T13:53:13.969Z,12.37
2019-03-22T13:58:19.791Z,11.48
2019-03-22T14:03:26.364Z,13.15
2019-03-22T14:08:32.523Z,11.70
2019-03-22T14:13:39.775Z,10.55
2019-03-22T14:18:45.937Z,10.68
2019-03-22T14:23:51.742Z,11.65
2019-03-22T14:28:58.579Z,11.43
2019-03-22T14:34:04.668Z,11.75
2019-03-22T14:39:10.546Z,10.08
2019-03-22T14:44:24.975Z,11.50
2019-03-22T14:49:24.183Z,11.73
2019-03-22T14:54:29.986Z,11.70
2019-03-22T14:59:35.874Z,11.45
2019-03-22T15:04:41.713Z,10.93
2019-03-22T15:09:47.813Z,10.82
2019-03-22T15:15:03.349Z,11.18
2019-03-22T15:20:25.151Z,10.18
2019-03-22T15:25:59.764Z,10.68
2019-03-22T15:31:23.524Z,11.83
2019-03-22T15:36:51.755Z,11.50
2019-03-22T15:41:57.840Z,11.38
2019-03-22T15:47:03.660Z,11.50
2019-03-22T15:52:09.460Z,11.68
2019-03-22T15:57:15.391Z,11.95
2019-03-22T16:02:21.685Z,12.10
2019-03-22T16:07:27.511Z,12.33
2019-03-22T16:12:33.733Z,11.65
2019-03-22T16:17:39.553Z,11.15
2019-03-22T16:22:45.473Z,12.23
2019-03-22T16:27:51.288Z,12.03
2019-03-22T16:32:57.126Z,12.45
2019-03-22T16:38:03.353Z,13.00
2019-03-22T16:43:09.326Z,13.22
2019-03-22T16:48:15.732Z,13.22
2019-03-22T16:53:22.859Z,12.60
2019-03-22T16:58:29.462Z,12.47
2019-03-22T17:03:35.310Z,12.13
2019-03-22T17:08:41.119Z,12.40
2019-03-22T17:13:48.322Z,12.90
2019-03-22T17:18:54.427Z,13.40
2019-03-22T17:24:00.710Z,14.40
2019-03-22T17:29:07.610Z,13.75
2019-03-22T17:34:14.590Z,14.47
2019-03-22T17:39:21.104Z,13.05
2019-03-22T17:44:27.274Z,14.20
2019-03-22T17:49:33.651Z,13.48
2019-03-22T17:54:40.562Z,14.05
2019-03-22T17:59:46.985Z,13.95
2019-03-22T18:04:53.183Z,14.87
2019-03-22T18:09:59.373Z,14.78
2019-03-22T18:15:06.169Z,15.95
2019-03-22T18:20:12.316Z,18.92
2019-03-22T18:25:18.547Z,21.52
2019-03-22T18:30:24.522Z,22.32
2019-03-22T18:35:32.854Z,24.50
2019-03-22T18:40:40.129Z,25.43
2019-03-22T18:45:45.946Z,25.20
2019-03-22T18:50:56.684Z,25.65
2019-03-22T18:56:00.211Z,25.37
2019-03-22T19:01:06.368Z,26.85
2019-03-22T19:06:12.372Z,25.52
2019-03-22T19:11:19.367Z,27.37
2019-03-22T19:16:25.603Z,27.10
2019-03-22T19:21:35.722Z,26.45
2019-03-22T19:26:42.416Z,28.75
2019-03-22T19:31:48.600Z,28.35
2019-03-22T19:36:54.492Z,28.73
2019-03-22T19:42:01.100Z,29.42
2019-03-22T19:47:10.383Z,29.35
2019-03-22T19:52:17.386Z,29.75
2019-03-22T19:57:23.286Z,31.27
2019-03-22T20:02:29.198Z,31.00
2019-03-22T20:07:35.483Z,29.63
2019-03-22T20:12:41.363Z,31.07
2019-03-22T20:17:47.528Z,31.85
2019-03-22T20:22:54.257Z,33.42
2019-03-22T20:28:00.595Z,32.98
2019-03-22T20:33:06.977Z,34.03
2019-03-22T20:38:12.905Z,33.70
2019-03-22T20:43:21.227Z,34.20
2019-03-22T20:48:27.326Z,33.05
2019-03-22T20:53:33.247Z,34.58
2019-03-22T20:58:40.137Z,33.23
2019-03-22T21:03:46.634Z,33.85
2019-03-22T21:08:52.471Z,35.03
2019-03-22T21:13:58.994Z,34.63
2019-03-22T21:19:05.173Z,35.70
2019-03-22T21:24:10.976Z,34.90
2019-03-22T21:29:16.817Z,34.88
2019-03-22T21:34:22.618Z,35.17
2019-03-22T21:39:28.826Z,36.17
2019-03-22T21:44:34.637Z,34.85
2019-03-22T21:49:40.443Z,37.50
2019-03-22T21:54:46.343Z,36.20
2019-03-22T21:59:52.383Z,36.70
2019-03-22T22:04:58.317Z,36.33
2019-03-22T22:10:04.263Z,37.95
2019-03-22T22:15:12.375Z,38.33
2019-03-22T22:20:28.432Z,37.88
2019-03-22T22:25:25.793Z,38.50
2019-03-22T22:30:31.607Z,37.03
2019-03-22T22:35:37.530Z,36.48
2019-03-22T22:40:44.120Z,37.17
2019-03-22T22:45:50.982Z,35.25
2019-03-22T22:50:57.023Z,34.55
2019-03-22T22:56:02.834Z,33.35
2019-03-22T23:01:08.636Z,33.88
2019-03-22T23:06:14.647Z,31.82
2019-03-22T23:11:20.458Z,33.40
2019-03-22T23:16:26.628Z,33.40
2019-03-22T23:21:32.846Z,34.13
2019-03-22T23:26:39.736Z,34.40
2019-03-22T23:31:45.700Z,32.20
2019-03-22T23:36:51.643Z,30.17
2019-03-22T23:41:57.545Z,26.82
2019-03-22T23:47:03.713Z,27.82
2019-03-22T23:52:09.525Z,25.08
2019-03-22T23:57:15.322Z,24.52
